sensor_id;sensor_type;location;lat;lon;timestamp;temperature;humidity
50989;DHT22;37008;52.210;21.112;2023-04-08T00:00:03;5.50;99.90
50989;DHT22;37008;52.210;21.112;2023-04-08T00:02:31;5.50;99.90
50989;DHT22;37008;52.210;21.112;2023-04-08T00:04:56;5.50;99.90
50989;DHT22;37008;52.210;21.112;2023-04-08T00:07:22;5.60;99.90
50989;DHT22;37008;52.210;21.112;2023-04-08T00:09:48;5.50;99.90
50989;DHT22;37008;52.210;21.112;2023-04-08T00:12:13;5.50;99.90
50989;DHT22;37008;52.210;21.112;2023-04-08T00:14:39;5.50;99.90
50989;DHT22;37008;52.210;21.112;2023-04-08T00:17:06;5.50;99.90
50989;DHT22;37008;52.210;21.112;2023-04-08T00:19:32;5.50;99.90
50989;DHT22;37008;52.210;21.112;2023-04-08T00:21:58;5.50;99.90
50989;DHT22;37008;52.210;21.112;2023-04-08T00:24:24;5.50;99.90
50989;DHT22;37008;52.210;21.112;2023-04-08T00:26:50;5.50;99.90
50989;DHT22;37008;52.210;21.112;2023-04-08T00:29:15;5.50;99.90
50989;DHT22;37008;52.210;21.112;2023-04-08T00:31:41;5.50;99.90
50989;DHT22;37008;52.210;21.112;2023-04-08T00:34:07;5.50;99.90
50989;DHT22;37008;52.210;21.112;2023-04-08T00:36:33;5.50;99.90
50989;DHT22;37008;52.210;21.112;2023-04-08T00:39:00;5.50;99.90
50989;DHT22;37008;52.210;21.112;2023-04-08T00:41:26;5.50;99.90
50989;DHT22;37008;52.210;21.112;2023-04-08T00:43:52;5.50;99.90
50989;DHT22;37008;52.210;21.112;2023-04-08T00:46:18;5.40;99.90
50989;DHT22;37008;52.210;21.112;2023-04-08T00:48:44;5.40;99.90
50989;DHT22;37008;52.210;21.112;2023-04-08T00:51:10;5.40;99.90
50989;DHT22;37008;52.210;21.112;2023-04-08T00:53:36;5.40;99.90
50989;DHT22;37008;52.210;21.112;2023-04-08T00:56:02;5.40;99.90
50989;DHT22;37008;52.210;21.112;2023-04-08T00:58:28;5.40;99.90
50989;DHT22;37008;52.210;21.112;2023-04-08T01:01:01;5.30;99.90
50989;DHT22;37008;52.210;21.112;2023-04-08T01:06:27;5.30;99.90
50989;DHT22;37008;52.210;21.112;2023-04-08T01:08:55;5.20;99.90
50989;DHT22;37008;52.210;21.112;2023-04-08T01:11:24;5.20;99.90
50989;DHT22;37008;52.210;21.112;2023-04-08T01:13:53;5.20;99.90
50989;DHT22;37008;52.210;21.112;2023-04-08T01:16:21;5.10;99.90
50989;DHT22;37008;52.210;21.112;2023-04-08T01:18:49;5.10;99.90
50989;DHT22;37008;52.210;21.112;2023-04-08T01:21:17;5.00;99.90
50989;DHT22;37008;52.210;21.112;2023-04-08T01:24:32;4.90;99.90
50989;DHT22;37008;52.210;21.112;2023-04-08T01:26:52;4.80;99.90
50989;DHT22;37008;52.210;21.112;2023-04-08T01:29:18;4.70;99.90
50989;DHT22;37008;52.210;21.112;2023-04-08T01:31:46;4.50;99.90
50989;DHT22;37008;52.210;21.112;2023-04-08T01:34:13;4.30;99.90
50989;DHT22;37008;52.210;21.112;2023-04-08T01:36:40;4.10;99.90
50989;DHT22;37008;52.210;21.112;2023-04-08T01:39:08;3.90;99.90
50989;DHT22;37008;52.210;21.112;2023-04-08T01:41:36;3.80;99.90
50989;DHT22;37008;52.210;21.112;2023-04-08T01:44:03;3.60;99.90
50989;DHT22;37008;52.210;21.112;2023-04-08T01:46:30;3.50;99.90
50989;DHT22;37008;52.210;21.112;2023-04-08T01:48:57;3.30;99.90
50989;DHT22;37008;52.210;21.112;2023-04-08T01:51:24;3.20;99.90
50989;DHT22;37008;52.210;21.112;2023-04-08T01:53:51;3.10;99.90
50989;DHT22;37008;52.210;21.112;2023-04-08T01:56:21;3.00;99.90
50989;DHT22;37008;52.210;21.112;2023-04-08T01:58:50;2.90;99.90
50989;DHT22;37008;52.210;21.112;2023-04-08T02:01:19;2.70;99.90
50989;DHT22;37008;52.210;21.112;2023-04-08T02:03:46;2.60;99.90
50989;DHT22;37008;52.210;21.112;2023-04-08T02:06:13;2.50;99.90
50989;DHT22;37008;52.210;21.112;2023-04-08T02:08:38;2.40;99.90
50989;DHT22;37008;52.210;21.112;2023-04-08T02:11:04;2.30;99.90
50989;DHT22;37008;52.210;21.112;2023-04-08T02:13:31;2.20;99.90
50989;DHT22;37008;52.210;21.112;2023-04-08T02:16:10;2.10;99.90
50989;DHT22;37008;52.210;21.112;2023-04-08T02:18:42;2.00;99.90
50989;DHT22;37008;52.210;21.112;2023-04-08T02:21:13;1.90;99.90
50989;DHT22;37008;52.210;21.112;2023-04-08T02:23:40;1.90;99.90
50989;DHT22;37008;52.210;21.112;2023-04-08T02:26:14;1.80;99.90
50989;DHT22;37008;52.210;21.112;2023-04-08T02:28:41;1.70;99.90
50989;DHT22;37008;52.210;21.112;2023-04-08T02:31:11;1.60;99.90
50989;DHT22;37008;52.210;21.112;2023-04-08T02:33:41;1.60;99.90
50989;DHT22;37008;52.210;21.112;2023-04-08T02:36:08;1.50;99.90
50989;DHT22;37008;52.210;21.112;2023-04-08T02:38:35;1.40;99.90
50989;DHT22;37008;52.210;21.112;2023-04-08T02:41:01;1.40;99.90
50989;DHT22;37008;52.210;21.112;2023-04-08T02:43:26;1.40;99.90
50989;DHT22;37008;52.210;21.112;2023-04-08T02:45:57;1.30;99.90
50989;DHT22;37008;52.210;21.112;2023-04-08T02:48:24;1.30;99.90
50989;DHT22;37008;52.210;21.112;2023-04-08T02:50:50;1.20;99.90
50989;DHT22;37008;52.210;21.112;2023-04-08T02:53:16;1.10;99.90
50989;DHT22;37008;52.210;21.112;2023-04-08T02:55:41;1.10;99.90
50989;DHT22;37008;52.210;21.112;2023-04-08T02:58:07;1.00;99.90
50989;DHT22;37008;52.210;21.112;2023-04-08T03:00:32;1.00;99.90
50989;DHT22;37008;52.210;21.112;2023-04-08T03:02:58;0.90;99.90
50989;DHT22;37008;52.210;21.112;2023-04-08T03:05:25;0.90;99.90
50989;DHT22;37008;52.210;21.112;2023-04-08T03:07:50;0.90;99.90
50989;DHT22;37008;52.210;21.112;2023-04-08T03:10:16;0.90;99.90
50989;DHT22;37008;52.210;21.112;2023-04-08T03:12:41;0.80;99.90
50989;DHT22;37008;52.210;21.112;2023-04-08T03:15:07;0.70;99.90
50989;DHT22;37008;52.210;21.112;2023-04-08T03:17:33;0.70;99.90
50989;DHT22;37008;52.210;21.112;2023-04-08T03:19:59;0.70;99.90
50989;DHT22;37008;52.210;21.112;2023-04-08T03:22:25;0.60;99.90
50989;DHT22;37008;52.210;21.112;2023-04-08T03:24:51;0.60;99.90
50989;DHT22;37008;52.210;21.112;2023-04-08T03:27:16;0.60;99.90
50989;DHT22;37008;52.210;21.112;2023-04-08T03:29:42;0.50;99.90
50989;DHT22;37008;52.210;21.112;2023-04-08T03:32:07;0.50;99.90
50989;DHT22;37008;52.210;21.112;2023-04-08T03:34:33;0.50;99.90
50989;DHT22;37008;52.210;21.112;2023-04-08T03:37:00;0.50;99.90
50989;DHT22;37008;52.210;21.112;2023-04-08T03:39:26;0.50;99.90
50989;DHT22;37008;52.210;21.112;2023-04-08T03:41:51;0.50;99.90
50989;DHT22;37008;52.210;21.112;2023-04-08T03:44:17;0.40;99.90
50989;DHT22;37008;52.210;21.112;2023-04-08T03:46:42;0.40;99.90
50989;DHT22;37008;52.210;21.112;2023-04-08T03:49:08;0.40;99.90
50989;DHT22;37008;52.210;21.112;2023-04-08T03:51:33;0.30;99.90
50989;DHT22;37008;52.210;21.112;2023-04-08T03:53:59;0.20;99.90
50989;DHT22;37008;52.210;21.112;2023-04-08T03:56:25;0.20;99.90
50989;DHT22;37008;52.210;21.112;2023-04-08T03:58:50;0.10;99.90
50989;DHT22;37008;52.210;21.112;2023-04-08T04:01:16;0.10;99.90
50989;DHT22;37008;52.210;21.112;2023-04-08T04:03:42;0.10;99.90
50989;DHT22;37008;52.210;21.112;2023-04-08T04:06:07;0.10;99.90
50989;DHT22;37008;52.210;21.112;2023-04-08T04:08:33;0.10;99.90
50989;DHT22;37008;52.210;21.112;2023-04-08T04:10:59;0.10;99.90
50989;DHT22;37008;52.210;21.112;2023-04-08T04:13:25;0.10;99.90
50989;DHT22;37008;52.210;21.112;2023-04-08T04:15:51;0.10;99.90
50989;DHT22;37008;52.210;21.112;2023-04-08T04:18:16;0.10;99.90
50989;DHT22;37008;52.210;21.112;2023-04-08T04:20:42;0.00;99.90
50989;DHT22;37008;52.210;21.112;2023-04-08T04:23:08;0.00;99.90
50989;DHT22;37008;52.210;21.112;2023-04-08T04:25:33;0.00;99.90
50989;DHT22;37008;52.210;21.112;2023-04-08T04:27:59;0.00;99.90
50989;DHT22;37008;52.210;21.112;2023-04-08T04:30:26;0.10;99.90
50989;DHT22;37008;52.210;21.112;2023-04-08T04:32:52;0.10;99.90
50989;DHT22;37008;52.210;21.112;2023-04-08T04:35:17;0.10;99.90
50989;DHT22;37008;52.210;21.112;2023-04-08T04:37:43;0.10;99.90
50989;DHT22;37008;52.210;21.112;2023-04-08T04:40:09;0.10;99.90
50989;DHT22;37008;52.210;21.112;2023-04-08T04:42:35;0.10;99.90
50989;DHT22;37008;52.210;21.112;2023-04-08T04:45:00;0.20;99.90
50989;DHT22;37008;52.210;21.112;2023-04-08T04:47:26;0.20;99.90
50989;DHT22;37008;52.210;21.112;2023-04-08T04:49:52;0.30;99.90
50989;DHT22;37008;52.210;21.112;2023-04-08T04:52:17;0.30;99.90
50989;DHT22;37008;52.210;21.112;2023-04-08T04:54:43;0.50;99.90
50989;DHT22;37008;52.210;21.112;2023-04-08T04:57:08;0.40;99.90
50989;DHT22;37008;52.210;21.112;2023-04-08T04:59:35;0.50;99.90
50989;DHT22;37008;52.210;21.112;2023-04-08T05:02:01;0.60;99.90
50989;DHT22;37008;52.210;21.112;2023-04-08T05:04:27;0.70;99.90
50989;DHT22;37008;52.210;21.112;2023-04-08T05:06:53;0.80;99.90
50989;DHT22;37008;52.210;21.112;2023-04-08T05:09:18;0.90;99.90
50989;DHT22;37008;52.210;21.112;2023-04-08T05:11:44;1.00;99.90
50989;DHT22;37008;52.210;21.112;2023-04-08T05:14:10;1.10;99.90
50989;DHT22;37008;52.210;21.112;2023-04-08T05:16:35;1.20;99.90
50989;DHT22;37008;52.210;21.112;2023-04-08T05:19:01;1.40;99.90
50989;DHT22;37008;52.210;21.112;2023-04-08T05:21:27;1.50;99.90
50989;DHT22;37008;52.210;21.112;2023-04-08T05:23:52;1.60;99.90
50989;DHT22;37008;52.210;21.112;2023-04-08T05:26:19;1.70;99.90
50989;DHT22;37008;52.210;21.112;2023-04-08T05:28:46;1.80;99.90
50989;DHT22;37008;52.210;21.112;2023-04-08T05:31:15;1.90;99.90
50989;DHT22;37008;52.210;21.112;2023-04-08T05:33:40;2.10;99.90
50989;DHT22;37008;52.210;21.112;2023-04-08T05:36:06;2.20;99.90
50989;DHT22;37008;52.210;21.112;2023-04-08T05:38:31;2.30;99.90
50989;DHT22;37008;52.210;21.112;2023-04-08T05:40:57;2.40;99.90
50989;DHT22;37008;52.210;21.112;2023-04-08T05:43:22;2.60;99.90
50989;DHT22;37008;52.210;21.112;2023-04-08T05:45:48;2.70;99.90
50989;DHT22;37008;52.210;21.112;2023-04-08T05:48:14;2.80;99.90
50989;DHT22;37008;52.210;21.112;2023-04-08T05:50:40;2.90;99.90
50989;DHT22;37008;52.210;21.112;2023-04-08T05:53:05;3.00;99.90
50989;DHT22;37008;52.210;21.112;2023-04-08T05:55:31;3.20;99.90
50989;DHT22;37008;52.210;21.112;2023-04-08T05:57:57;3.30;99.90
50989;DHT22;37008;52.210;21.112;2023-04-08T06:00:22;3.40;99.90
50989;DHT22;37008;52.210;21.112;2023-04-08T06:02:48;3.60;99.90
50989;DHT22;37008;52.210;21.112;2023-04-08T06:05:13;3.70;99.90
50989;DHT22;37008;52.210;21.112;2023-04-08T06:07:39;3.90;99.90
50989;DHT22;37008;52.210;21.112;2023-04-08T06:10:04;4.00;99.90
50989;DHT22;37008;52.210;21.112;2023-04-08T06:12:34;4.10;99.90
50989;DHT22;37008;52.210;21.112;2023-04-08T06:15:00;4.30;99.90
50989;DHT22;37008;52.210;21.112;2023-04-08T06:17:26;4.40;99.90
50989;DHT22;37008;52.210;21.112;2023-04-08T06:19:51;4.50;99.90
50989;DHT22;37008;52.210;21.112;2023-04-08T06:22:17;4.60;99.90
50989;DHT22;37008;52.210;21.112;2023-04-08T06:24:42;4.70;99.90
50989;DHT22;37008;52.210;21.112;2023-04-08T06:27:08;4.80;99.90
50989;DHT22;37008;52.210;21.112;2023-04-08T06:29:33;4.90;99.90
50989;DHT22;37008;52.210;21.112;2023-04-08T06:31:59;4.90;99.90
50989;DHT22;37008;52.210;21.112;2023-04-08T06:34:25;5.00;99.90
50989;DHT22;37008;52.210;21.112;2023-04-08T06:36:50;5.10;99.90
50989;DHT22;37008;52.210;21.112;2023-04-08T06:39:16;5.20;99.90
50989;DHT22;37008;52.210;21.112;2023-04-08T06:41:43;5.30;99.90
50989;DHT22;37008;52.210;21.112;2023-04-08T06:44:09;5.40;99.90
50989;DHT22;37008;52.210;21.112;2023-04-08T06:46:34;5.50;99.90
50989;DHT22;37008;52.210;21.112;2023-04-08T06:49:00;5.60;99.90
50989;DHT22;37008;52.210;21.112;2023-04-08T06:51:26;5.70;99.90
50989;DHT22;37008;52.210;21.112;2023-04-08T06:53:52;5.80;99.90
50989;DHT22;37008;52.210;21.112;2023-04-08T06:56:17;5.80;99.90
50989;DHT22;37008;52.210;21.112;2023-04-08T06:58:44;6.00;99.90
50989;DHT22;37008;52.210;21.112;2023-04-08T07:01:10;6.10;99.90
50989;DHT22;37008;52.210;21.112;2023-04-08T07:03:35;6.10;99.90
50989;DHT22;37008;52.210;21.112;2023-04-08T07:06:02;6.20;99.90
50989;DHT22;37008;52.210;21.112;2023-04-08T07:08:28;6.30;99.90
50989;DHT22;37008;52.210;21.112;2023-04-08T07:10:54;6.40;99.90
50989;DHT22;37008;52.210;21.112;2023-04-08T07:13:19;6.50;99.90
50989;DHT22;37008;52.210;21.112;2023-04-08T07:15:45;6.50;99.90
50989;DHT22;37008;52.210;21.112;2023-04-08T07:18:11;6.60;99.90
50989;DHT22;37008;52.210;21.112;2023-04-08T07:20:37;6.60;99.90
50989;DHT22;37008;52.210;21.112;2023-04-08T07:23:03;6.70;99.90
50989;DHT22;37008;52.210;21.112;2023-04-08T07:25:29;6.80;99.90
50989;DHT22;37008;52.210;21.112;2023-04-08T07:27:55;6.90;99.90
50989;DHT22;37008;52.210;21.112;2023-04-08T07:30:21;7.00;99.80
50989;DHT22;37008;52.210;21.112;2023-04-08T07:32:46;7.00;99.90
50989;DHT22;37008;52.210;21.112;2023-04-08T07:35:12;7.10;99.70
50989;DHT22;37008;52.210;21.112;2023-04-08T07:37:38;7.20;99.10
50989;DHT22;37008;52.210;21.112;2023-04-08T07:40:04;7.40;98.80
50989;DHT22;37008;52.210;21.112;2023-04-08T07:42:29;7.50;96.70
50989;DHT22;37008;52.210;21.112;2023-04-08T07:44:55;7.50;96.50
50989;DHT22;37008;52.210;21.112;2023-04-08T07:47:20;7.50;96.20
50989;DHT22;37008;52.210;21.112;2023-04-08T07:49:46;7.60;96.20
50989;DHT22;37008;52.210;21.112;2023-04-08T07:52:12;7.70;95.40
50989;DHT22;37008;52.210;21.112;2023-04-08T07:54:38;7.70;95.20
50989;DHT22;37008;52.210;21.112;2023-04-08T07:57:03;7.80;94.30
50989;DHT22;37008;52.210;21.112;2023-04-08T07:59:29;7.80;93.40
50989;DHT22;37008;52.210;21.112;2023-04-08T08:01:56;7.90;93.10
50989;DHT22;37008;52.210;21.112;2023-04-08T08:04:21;8.00;93.00
50989;DHT22;37008;52.210;21.112;2023-04-08T08:06:50;8.00;93.00
50989;DHT22;37008;52.210;21.112;2023-04-08T08:09:15;8.10;92.80
50989;DHT22;37008;52.210;21.112;2023-04-08T08:11:41;8.20;92.90
50989;DHT22;37008;52.210;21.112;2023-04-08T08:14:06;8.30;92.20
50989;DHT22;37008;52.210;21.112;2023-04-08T08:16:32;8.30;91.50
50989;DHT22;37008;52.210;21.112;2023-04-08T08:18:58;8.40;91.50
50989;DHT22;37008;52.210;21.112;2023-04-08T08:21:23;8.50;91.60
50989;DHT22;37008;52.210;21.112;2023-04-08T08:23:51;8.60;91.40
50989;DHT22;37008;52.210;21.112;2023-04-08T08:26:17;8.70;90.80
50989;DHT22;37008;52.210;21.112;2023-04-08T08:28:43;8.80;90.40
50989;DHT22;37008;52.210;21.112;2023-04-08T08:31:08;8.80;90.40
50989;DHT22;37008;52.210;21.112;2023-04-08T08:33:34;8.90;89.60
50989;DHT22;37008;52.210;21.112;2023-04-08T08:36:00;8.90;88.80
50989;DHT22;37008;52.210;21.112;2023-04-08T08:38:26;9.00;88.60
50989;DHT22;37008;52.210;21.112;2023-04-08T08:40:56;9.10;89.00
50989;DHT22;37008;52.210;21.112;2023-04-08T08:43:23;9.20;89.00
50989;DHT22;37008;52.210;21.112;2023-04-08T08:45:48;9.40;88.70
50989;DHT22;37008;52.210;21.112;2023-04-08T08:48:14;9.50;87.60
50989;DHT22;37008;52.210;21.112;2023-04-08T08:50:40;9.60;85.40
50989;DHT22;37008;52.210;21.112;2023-04-08T08:53:05;9.60;83.10
50989;DHT22;37008;52.210;21.112;2023-04-08T08:55:32;9.60;82.90
50989;DHT22;37008;52.210;21.112;2023-04-08T08:58:01;9.70;81.70
50989;DHT22;37008;52.210;21.112;2023-04-08T09:00:38;9.70;80.80
50989;DHT22;37008;52.210;21.112;2023-04-08T09:05:53;9.80;79.40
50989;DHT22;37008;52.210;21.112;2023-04-08T09:08:34;9.90;79.40
50989;DHT22;37008;52.210;21.112;2023-04-08T09:11:18;9.90;78.70
50989;DHT22;37008;52.210;21.112;2023-04-08T09:13:45;9.90;78.10
50989;DHT22;37008;52.210;21.112;2023-04-08T09:16:14;9.90;78.50
50989;DHT22;37008;52.210;21.112;2023-04-08T09:18:42;10.00;78.30
50989;DHT22;37008;52.210;21.112;2023-04-08T09:21:10;10.00;78.20
50989;DHT22;37008;52.210;21.112;2023-04-08T09:23:42;10.10;76.80
50989;DHT22;37008;52.210;21.112;2023-04-08T09:26:19;10.10;75.20
50989;DHT22;37008;52.210;21.112;2023-04-08T09:31:32;10.20;75.80
50989;DHT22;37008;52.210;21.112;2023-04-08T09:34:00;10.30;75.50
50989;DHT22;37008;52.210;21.112;2023-04-08T09:36:31;10.40;73.70
50989;DHT22;37008;52.210;21.112;2023-04-08T09:38:56;10.50;73.20
50989;DHT22;37008;52.210;21.112;2023-04-08T09:41:25;10.60;72.40
50989;DHT22;37008;52.210;21.112;2023-04-08T09:43:56;10.70;72.10
50989;DHT22;37008;52.210;21.112;2023-04-08T09:46:31;10.80;72.40
50989;DHT22;37008;52.210;21.112;2023-04-08T09:52:09;11.00;71.70
50989;DHT22;37008;52.210;21.112;2023-04-08T09:55:02;11.00;70.90
50989;DHT22;37008;52.210;21.112;2023-04-08T09:57:51;11.00;71.00
50989;DHT22;37008;52.210;21.112;2023-04-08T10:00:18;11.10;71.40
50989;DHT22;37008;52.210;21.112;2023-04-08T10:03:08;11.10;71.60
50989;DHT22;37008;52.210;21.112;2023-04-08T10:05:40;11.30;71.90
50989;DHT22;37008;52.210;21.112;2023-04-08T10:08:06;11.40;71.40
50989;DHT22;37008;52.210;21.112;2023-04-08T10:10:38;11.50;71.60
50989;DHT22;37008;52.210;21.112;2023-04-08T10:13:04;11.60;71.20
50989;DHT22;37008;52.210;21.112;2023-04-08T10:15:34;11.70;69.50
50989;DHT22;37008;52.210;21.112;2023-04-08T10:23:09;11.80;67.50
50989;DHT22;37008;52.210;21.112;2023-04-08T10:25:42;11.80;67.20
50989;DHT22;37008;52.210;21.112;2023-04-08T10:33:38;11.90;66.00
50989;DHT22;37008;52.210;21.112;2023-04-08T10:38:40;12.10;66.80
50989;DHT22;37008;52.210;21.112;2023-04-08T10:41:11;12.30;67.20
50989;DHT22;37008;52.210;21.112;2023-04-08T10:43:46;12.40;66.20
50989;DHT22;37008;52.210;21.112;2023-04-08T10:46:11;12.40;63.10
50989;DHT22;37008;52.210;21.112;2023-04-08T10:48:37;12.40;62.60
50989;DHT22;37008;52.210;21.112;2023-04-08T10:51:04;12.40;61.80
50989;DHT22;37008;52.210;21.112;2023-04-08T10:53:37;12.40;61.00
50989;DHT22;37008;52.210;21.112;2023-04-08T10:56:06;12.40;59.50
50989;DHT22;37008;52.210;21.112;2023-04-08T10:58:33;12.40;59.80
50989;DHT22;37008;52.210;21.112;2023-04-08T11:01:06;12.40;60.10
50989;DHT22;37008;52.210;21.112;2023-04-08T11:03:35;12.40;59.00
50989;DHT22;37008;52.210;21.112;2023-04-08T11:06:02;12.40;58.30
50989;DHT22;37008;52.210;21.112;2023-04-08T11:08:28;12.40;58.70
50989;DHT22;37008;52.210;21.112;2023-04-08T11:10:54;12.40;59.30
50989;DHT22;37008;52.210;21.112;2023-04-08T11:13:21;12.60;59.50
50989;DHT22;37008;52.210;21.112;2023-04-08T11:15:48;12.70;59.80
50989;DHT22;37008;52.210;21.112;2023-04-08T11:18:15;12.80;59.60
50989;DHT22;37008;52.210;21.112;2023-04-08T11:20:43;13.00;59.20
50989;DHT22;37008;52.210;21.112;2023-04-08T11:23:15;13.10;59.20
50989;DHT22;37008;52.210;21.112;2023-04-08T11:25:42;13.30;59.40
50989;DHT22;37008;52.210;21.112;2023-04-08T11:28:10;13.50;59.90
50989;DHT22;37008;52.210;21.112;2023-04-08T11:30:38;13.60;58.40
50989;DHT22;37008;52.210;21.112;2023-04-08T11:33:05;13.70;58.30
50989;DHT22;37008;52.210;21.112;2023-04-08T11:35:31;13.80;58.40
50989;DHT22;37008;52.210;21.112;2023-04-08T11:37:56;14.00;58.70
50989;DHT22;37008;52.210;21.112;2023-04-08T11:40:22;14.10;58.40
50989;DHT22;37008;52.210;21.112;2023-04-08T11:42:49;14.20;57.60
50989;DHT22;37008;52.210;21.112;2023-04-08T11:45:17;14.20;56.80
50989;DHT22;37008;52.210;21.112;2023-04-08T11:47:44;14.20;56.10
50989;DHT22;37008;52.210;21.112;2023-04-08T11:50:10;14.10;56.20
50989;DHT22;37008;52.210;21.112;2023-04-08T11:52:44;14.20;56.30
50989;DHT22;37008;52.210;21.112;2023-04-08T11:55:11;14.10;55.40
50989;DHT22;37008;52.210;21.112;2023-04-08T11:57:38;14.10;54.90
50989;DHT22;37008;52.210;21.112;2023-04-08T12:00:06;14.00;55.30
50989;DHT22;37008;52.210;21.112;2023-04-08T12:02:32;13.90;54.90
50989;DHT22;37008;52.210;21.112;2023-04-08T12:04:58;13.80;54.80
50989;DHT22;37008;52.210;21.112;2023-04-08T12:07:23;13.60;55.20
50989;DHT22;37008;52.210;21.112;2023-04-08T12:09:49;13.50;55.90
50989;DHT22;37008;52.210;21.112;2023-04-08T12:12:15;13.30;56.30
50989;DHT22;37008;52.210;21.112;2023-04-08T12:14:41;13.30;56.60
50989;DHT22;37008;52.210;21.112;2023-04-08T12:17:06;13.30;56.60
50989;DHT22;37008;52.210;21.112;2023-04-08T12:19:32;13.30;56.40
50989;DHT22;37008;52.210;21.112;2023-04-08T12:21:58;13.40;55.40
50989;DHT22;37008;52.210;21.112;2023-04-08T12:24:23;13.40;54.80
50989;DHT22;37008;52.210;21.112;2023-04-08T12:26:49;13.40;54.90
50989;DHT22;37008;52.210;21.112;2023-04-08T12:29:15;13.50;54.20
50989;DHT22;37008;52.210;21.112;2023-04-08T12:31:40;13.60;54.40
50989;DHT22;37008;52.210;21.112;2023-04-08T12:34:06;13.70;54.00
50989;DHT22;37008;52.210;21.112;2023-04-08T12:36:31;13.80;54.20
50989;DHT22;37008;52.210;21.112;2023-04-08T12:38:57;13.90;54.00
50989;DHT22;37008;52.210;21.112;2023-04-08T12:41:23;13.90;53.40
50989;DHT22;37008;52.210;21.112;2023-04-08T12:43:48;14.00;53.60
50989;DHT22;37008;52.210;21.112;2023-04-08T12:46:14;14.00;53.40
50989;DHT22;37008;52.210;21.112;2023-04-08T12:48:40;14.00;53.00
50989;DHT22;37008;52.210;21.112;2023-04-08T12:51:06;14.00;53.30
50989;DHT22;37008;52.210;21.112;2023-04-08T12:53:34;14.00;52.60
50989;DHT22;37008;52.210;21.112;2023-04-08T12:56:00;14.20;52.60
50989;DHT22;37008;52.210;21.112;2023-04-08T12:58:26;14.40;52.80
50989;DHT22;37008;52.210;21.112;2023-04-08T13:00:51;14.50;52.40
50989;DHT22;37008;52.210;21.112;2023-04-08T13:03:17;14.60;52.50
50989;DHT22;37008;52.210;21.112;2023-04-08T13:05:43;14.80;52.50
50989;DHT22;37008;52.210;21.112;2023-04-08T13:08:09;14.90;52.00
50989;DHT22;37008;52.210;21.112;2023-04-08T13:10:36;15.00;51.80
50989;DHT22;37008;52.210;21.112;2023-04-08T13:13:02;15.10;51.90
50989;DHT22;37008;52.210;21.112;2023-04-08T13:15:27;15.30;52.20
50989;DHT22;37008;52.210;21.112;2023-04-08T13:17:53;15.50;51.70
50989;DHT22;37008;52.210;21.112;2023-04-08T13:20:18;15.60;50.50
50989;DHT22;37008;52.210;21.112;2023-04-08T13:22:47;15.60;50.50
50989;DHT22;37008;52.210;21.112;2023-04-08T13:25:13;15.70;50.40
50989;DHT22;37008;52.210;21.112;2023-04-08T13:27:38;15.80;50.60
50989;DHT22;37008;52.210;21.112;2023-04-08T13:30:05;15.80;50.20
50989;DHT22;37008;52.210;21.112;2023-04-08T13:32:30;15.80;50.30
50989;DHT22;37008;52.210;21.112;2023-04-08T13:34:56;15.80;49.70
50989;DHT22;37008;52.210;21.112;2023-04-08T13:37:22;15.80;49.90
50989;DHT22;37008;52.210;21.112;2023-04-08T13:39:47;15.60;49.90
50989;DHT22;37008;52.210;21.112;2023-04-08T13:42:13;15.60;50.60
50989;DHT22;37008;52.210;21.112;2023-04-08T13:44:38;15.60;50.70
50989;DHT22;37008;52.210;21.112;2023-04-08T13:47:04;15.50;50.10
50989;DHT22;37008;52.210;21.112;2023-04-08T13:49:30;15.50;50.00
50989;DHT22;37008;52.210;21.112;2023-04-08T13:51:55;15.40;50.20
50989;DHT22;37008;52.210;21.112;2023-04-08T13:54:21;15.40;50.10
50989;DHT22;37008;52.210;21.112;2023-04-08T13:56:47;15.30;49.90
50989;DHT22;37008;52.210;21.112;2023-04-08T13:59:12;15.30;50.70
50989;DHT22;37008;52.210;21.112;2023-04-08T14:01:38;15.20;50.90
50989;DHT22;37008;52.210;21.112;2023-04-08T14:04:05;15.20;51.50
50989;DHT22;37008;52.210;21.112;2023-04-08T14:06:30;15.10;51.50
50989;DHT22;37008;52.210;21.112;2023-04-08T14:08:56;15.00;50.80
50989;DHT22;37008;52.210;21.112;2023-04-08T14:11:22;14.90;50.50
50989;DHT22;37008;52.210;21.112;2023-04-08T14:13:48;14.80;50.50
50989;DHT22;37008;52.210;21.112;2023-04-08T14:16:13;14.80;50.60
50989;DHT22;37008;52.210;21.112;2023-04-08T14:18:41;14.80;50.80
50989;DHT22;37008;52.210;21.112;2023-04-08T14:21:06;14.70;50.20
50989;DHT22;37008;52.210;21.112;2023-04-08T14:23:32;14.60;50.70
50989;DHT22;37008;52.210;21.112;2023-04-08T14:25:57;14.60;51.50
50989;DHT22;37008;52.210;21.112;2023-04-08T14:28:25;14.60;52.10
50989;DHT22;37008;52.210;21.112;2023-04-08T14:30:51;14.60;52.40
50989;DHT22;37008;52.210;21.112;2023-04-08T14:33:16;14.50;53.20
50989;DHT22;37008;52.210;21.112;2023-04-08T14:35:43;14.50;54.20
50989;DHT22;37008;52.210;21.112;2023-04-08T14:38:08;14.50;54.10
50989;DHT22;37008;52.210;21.112;2023-04-08T14:40:34;14.50;54.40
50989;DHT22;37008;52.210;21.112;2023-04-08T14:43:00;14.50;54.40
50989;DHT22;37008;52.210;21.112;2023-04-08T14:45:25;14.40;53.90
50989;DHT22;37008;52.210;21.112;2023-04-08T14:47:51;14.40;53.50
50989;DHT22;37008;52.210;21.112;2023-04-08T14:50:16;14.40;53.50
50989;DHT22;37008;52.210;21.112;2023-04-08T14:52:43;14.40;53.60
50989;DHT22;37008;52.210;21.112;2023-04-08T14:55:13;14.30;53.00
50989;DHT22;37008;52.210;21.112;2023-04-08T14:57:38;14.30;53.40
50989;DHT22;37008;52.210;21.112;2023-04-08T15:00:05;14.30;53.10
50989;DHT22;37008;52.210;21.112;2023-04-08T15:02:31;14.20;52.70
50989;DHT22;37008;52.210;21.112;2023-04-08T15:04:57;14.10;52.70
50989;DHT22;37008;52.210;21.112;2023-04-08T15:07:22;14.00;52.60
50989;DHT22;37008;52.210;21.112;2023-04-08T15:09:48;13.90;52.80
50989;DHT22;37008;52.210;21.112;2023-04-08T15:12:14;13.80;53.10
50989;DHT22;37008;52.210;21.112;2023-04-08T15:14:40;13.70;53.00
50989;DHT22;37008;52.210;21.112;2023-04-08T15:17:05;13.60;52.80
50989;DHT22;37008;52.210;21.112;2023-04-08T15:19:31;13.50;52.90
50989;DHT22;37008;52.210;21.112;2023-04-08T15:21:56;13.50;53.20
50989;DHT22;37008;52.210;21.112;2023-04-08T15:24:22;13.40;53.50
50989;DHT22;37008;52.210;21.112;2023-04-08T15:26:47;13.30;53.70
50989;DHT22;37008;52.210;21.112;2023-04-08T15:29:13;13.20;53.60
50989;DHT22;37008;52.210;21.112;2023-04-08T15:31:39;13.20;54.50
50989;DHT22;37008;52.210;21.112;2023-04-08T15:34:04;13.10;54.00
50989;DHT22;37008;52.210;21.112;2023-04-08T15:36:30;13.10;54.10
50989;DHT22;37008;52.210;21.112;2023-04-08T15:38:55;13.00;53.70
50989;DHT22;37008;52.210;21.112;2023-04-08T15:41:21;13.00;53.80
50989;DHT22;37008;52.210;21.112;2023-04-08T15:43:47;12.90;54.00
50989;DHT22;37008;52.210;21.112;2023-04-08T15:46:22;13.00;54.00